createdAt,value
2023-01-21T00:00:24.553Z,6.20
2023-01-21T00:01:24.485Z,7.00
2023-01-21T00:02:24.612Z,6.30
2023-01-21T00:03:24.541Z,6.10
2023-01-21T00:04:24.585Z,6.70
2023-01-21T00:05:24.386Z,6.40
2023-01-21T00:06:24.495Z,6.20
2023-01-21T00:07:24.390Z,6.50
2023-01-21T00:08:24.605Z,6.80
2023-01-21T00:09:24.506Z,7.10
2023-01-21T00:10:24.432Z,7.30
2023-01-21T00:11:24.434Z,7.00
2023-01-21T00:12:24.443Z,7.50
2023-01-21T00:13:24.445Z,7.60
2023-01-21T00:14:24.454Z,6.90
2023-01-21T00:15:24.454Z,8.40
2023-01-21T00:16:24.341Z,7.40
2023-01-21T00:17:25.388Z,7.40
2023-01-21T00:18:24.359Z,8.70
2023-01-21T00:19:25.518Z,8.00
2023-01-21T00:20:24.392Z,8.00
2023-01-21T00:21:24.297Z,8.30
2023-01-21T00:22:24.326Z,7.80
2023-01-21T00:23:24.303Z,7.50
2023-01-21T00:24:25.542Z,7.40
2023-01-21T00:25:24.973Z,7.40
2023-01-21T00:26:24.724Z,7.50
2023-01-21T00:27:24.224Z,7.10
2023-01-21T00:28:24.262Z,6.90
2023-01-21T00:29:24.230Z,6.70
2023-01-21T00:30:24.256Z,6.90
2023-01-21T00:31:24.328Z,6.70
2023-01-21T00:32:24.287Z,6.10
2023-01-21T00:33:24.211Z,6.70
2023-01-21T00:34:24.174Z,6.40
2023-01-21T00:35:24.298Z,6.50
2023-01-21T00:36:24.301Z,6.80
2023-01-21T00:37:24.224Z,7.10
2023-01-21T00:38:24.120Z,6.70
2023-01-21T00:39:24.095Z,6.80
2023-01-21T00:40:25.155Z,7.40
2023-01-21T00:41:24.122Z,7.40
2023-01-21T00:42:24.240Z,7.20
2023-01-21T00:43:24.167Z,7.30
2023-01-21T00:44:24.239Z,6.90
2023-01-21T00:45:24.078Z,6.80
2023-01-21T00:46:24.006Z,6.90
2023-01-21T00:47:23.875Z,6.50
2023-01-21T00:48:24.716Z,6.60
2023-01-21T00:49:24.189Z,6.70
2023-01-21T00:50:23.989Z,6.30
2023-01-21T00:51:24.009Z,6.10
2023-01-21T00:52:24.861Z,6.10
2023-01-21T00:53:24.301Z,6.00
2023-01-21T00:54:23.991Z,6.80
2023-01-21T00:55:24.041Z,6.70
2023-01-21T00:56:24.221Z,6.60
2023-01-21T00:57:23.925Z,6.90
2023-01-21T00:58:24.356Z,5.90
2023-01-21T00:59:23.754Z,6.40
2023-01-21T01:00:23.961Z,6.00
2023-01-21T01:01:24.116Z,6.30
2023-01-21T01:02:23.872Z,5.60
2023-01-21T01:03:23.820Z,5.90
2023-01-21T01:04:23.765Z,5.80
2023-01-21T01:05:23.875Z,5.70
2023-01-21T01:06:23.795Z,5.80
2023-01-21T01:07:23.692Z,5.70
2023-01-21T01:08:25.136Z,5.70
2023-01-21T01:09:23.606Z,6.10
2023-01-21T01:10:24.036Z,5.90
2023-01-21T01:11:23.651Z,5.70
2023-01-21T01:12:23.731Z,5.70
2023-01-21T01:13:23.811Z,5.00
2023-01-21T01:14:23.754Z,5.60
2023-01-21T01:15:23.557Z,5.50
2023-01-21T01:16:23.671Z,5.50
2023-01-21T01:17:23.475Z,5.70
2023-01-21T01:18:23.560Z,5.60
2023-01-21T01:19:23.906Z,5.50
2023-01-21T01:20:44.561Z,5.30
2023-01-21T01:21:23.494Z,5.50
2023-01-21T01:22:23.501Z,5.00
2023-01-21T01:23:23.489Z,5.70
2023-01-21T01:24:23.430Z,5.20
2023-01-21T01:25:23.327Z,5.70
2023-01-21T01:26:23.519Z,5.70
2023-01-21T01:27:25.081Z,6.30
2023-01-21T01:28:23.440Z,6.20
2023-01-21T01:29:23.453Z,5.90
2023-01-21T01:30:23.493Z,6.40
2023-01-21T01:31:23.560Z,6.30
2023-01-21T01:32:23.461Z,5.70
2023-01-21T01:33:23.795Z,6.60
2023-01-21T01:34:23.287Z,5.90
2023-01-21T01:35:23.376Z,6.50
2023-01-21T01:36:23.084Z,6.70
2023-01-21T01:37:23.215Z,6.50
2023-01-21T01:38:23.119Z,6.00
2023-01-21T01:39:23.199Z,6.80
2023-01-21T01:40:23.296Z,5.70
2023-01-21T01:41:23.141Z,5.70
2023-01-21T01:42:23.137Z,5.30
2023-01-21T01:43:23.570Z,5.60
2023-01-21T01:44:23.540Z,5.40
2023-01-21T01:45:23.057Z,6.20
2023-01-21T01:46:23.240Z,6.20
2023-01-21T01:47:22.997Z,6.00
2023-01-21T01:48:22.965Z,6.20
2023-01-21T01:49:23.074Z,6.00
2023-01-21T01:50:22.980Z,6.30
2023-01-21T01:51:23.132Z,6.60
2023-01-21T01:52:23.021Z,6.50
2023-01-21T01:53:22.918Z,6.70
2023-01-21T01:54:22.944Z,7.20
2023-01-21T01:55:22.906Z,6.80
2023-01-21T01:56:22.889Z,6.40
2023-01-21T01:57:23.009Z,6.70
2023-01-21T01:58:22.941Z,6.50
2023-01-21T01:59:22.954Z,6.40
2023-01-21T02:00:22.861Z,6.90
2023-01-21T02:01:22.893Z,6.60
2023-01-21T02:02:22.751Z,6.40
2023-01-21T02:03:22.761Z,6.80
2023-01-21T02:04:22.765Z,6.40
2023-01-21T02:05:22.766Z,6.50
2023-01-21T02:06:22.700Z,7.00
2023-01-21T02:07:22.854Z,6.50
2023-01-21T02:08:22.617Z,6.70
2023-01-21T02:09:23.345Z,6.60
2023-01-21T02:10:22.924Z,6.50
2023-01-21T02:11:22.715Z,5.50
2023-01-21T02:12:22.719Z,6.70
2023-01-21T02:13:24.579Z,6.30
2023-01-21T02:14:22.633Z,6.70
2023-01-21T02:15:22.642Z,7.00
2023-01-21T02:16:22.834Z,6.60
2023-01-21T02:17:22.646Z,6.60
2023-01-21T02:18:22.787Z,6.80
2023-01-21T02:19:23.275Z,6.70
2023-01-21T02:20:22.563Z,6.40
2023-01-21T02:21:22.497Z,7.20
2023-01-21T02:22:22.520Z,6.60
2023-01-21T02:23:23.332Z,6.40
2023-01-21T02:24:22.438Z,6.60
2023-01-21T02:25:22.510Z,6.70
2023-01-21T02:26:22.525Z,6.60
2023-01-21T02:27:30.229Z,6.40
2023-01-21T02:28:24.283Z,6.70
2023-01-21T02:29:22.755Z,6.30
2023-01-21T02:30:22.467Z,7.10
2023-01-21T02:31:22.512Z,6.30
2023-01-21T02:32:22.406Z,6.60
2023-01-21T02:33:22.583Z,6.70
2023-01-21T02:34:23.394Z,6.30
2023-01-21T02:35:22.475Z,6.20
2023-01-21T02:36:22.293Z,6.60
2023-01-21T02:37:22.428Z,6.70
2023-01-21T02:38:22.408Z,6.30
2023-01-21T02:39:22.407Z,6.70
2023-01-21T02:40:22.215Z,6.90
2023-01-21T02:41:22.244Z,6.10
2023-01-21T02:42:22.239Z,6.90
2023-01-21T02:43:22.340Z,6.80
2023-01-21T02:44:22.274Z,6.20
2023-01-21T02:45:22.155Z,6.40
2023-01-21T02:46:22.365Z,6.60
2023-01-21T02:47:22.154Z,5.90
2023-01-21T02:48:22.152Z,6.40
2023-01-21T02:49:22.181Z,6.80
2023-01-21T02:50:22.209Z,6.10
2023-01-21T02:51:22.173Z,6.10
2023-01-21T02:52:22.192Z,6.30
2023-01-21T02:53:22.095Z,6.30
2023-01-21T02:54:23.050Z,6.00
2023-01-21T02:55:22.014Z,6.30
2023-01-21T02:56:22.131Z,6.30
2023-01-21T02:57:22.125Z,6.50
2023-01-21T02:58:22.044Z,6.50
2023-01-21T02:59:22.153Z,6.20
2023-01-21T03:00:22.064Z,6.40
2023-01-21T03:01:22.037Z,5.90
2023-01-21T03:02:21.969Z,5.70
2023-01-21T03:03:21.970Z,5.80
2023-01-21T03:04:21.970Z,5.20
2023-01-21T03:05:21.962Z,5.00
2023-01-21T03:06:21.882Z,4.90
2023-01-21T03:07:22.007Z,4.70
2023-01-21T03:08:22.031Z,4.50
2023-01-21T03:09:22.808Z,4.70
2023-01-21T03:10:21.922Z,4.50
2023-01-21T03:11:21.819Z,4.50
2023-01-21T03:12:21.925Z,4.70
2023-01-21T03:13:21.931Z,4.70
2023-01-21T03:14:21.841Z,4.50
2023-01-21T03:15:21.745Z,4.50
2023-01-21T03:16:21.758Z,4.20
2023-01-21T03:17:21.858Z,4.50
2023-01-21T03:18:21.777Z,4.60
2023-01-21T03:19:21.769Z,4.20
2023-01-21T03:20:22.705Z,3.80
2023-01-21T03:21:21.687Z,4.00
2023-01-21T03:22:21.777Z,3.70
2023-01-21T03:23:21.708Z,4.00
2023-01-21T03:24:21.698Z,3.60
2023-01-21T03:25:21.818Z,3.70
2023-01-21T03:26:21.614Z,3.50
2023-01-21T03:27:21.621Z,3.60
2023-01-21T03:28:21.625Z,3.70
2023-01-21T03:29:21.600Z,3.60
2023-01-21T03:30:21.580Z,4.10
2023-01-21T03:31:21.685Z,3.70
2023-01-21T03:32:21.849Z,4.00
2023-01-21T03:33:21.697Z,4.20
2023-01-21T03:34:21.594Z,4.10
2023-01-21T03:35:22.109Z,4.20
2023-01-21T03:36:21.600Z,4.40
2023-01-21T03:37:21.600Z,4.60
2023-01-21T03:38:21.800Z,4.70
2023-01-21T03:39:21.414Z,4.90
2023-01-21T03:40:21.594Z,4.90
2023-01-21T03:41:21.607Z,4.60
2023-01-21T03:42:21.635Z,4.80
2023-01-21T03:43:22.373Z,4.80
2023-01-21T03:44:21.447Z,4.70
2023-01-21T03:45:21.846Z,4.80
2023-01-21T03:46:21.753Z,4.40
2023-01-21T03:47:21.440Z,4.70
2023-01-21T03:48:21.598Z,4.60
2023-01-21T03:49:21.486Z,4.00
2023-01-21T03:50:21.777Z,4.70
2023-01-21T03:51:21.598Z,4.20
2023-01-21T03:52:21.287Z,4.20
2023-01-21T03:53:21.311Z,4.50
2023-01-21T03:54:21.430Z,4.50
2023-01-21T03:55:21.629Z,4.30
2023-01-21T03:56:21.216Z,4.60
2023-01-21T03:57:21.518Z,4.10
2023-01-21T03:58:21.345Z,4.00
2023-01-21T03:59:21.165Z,4.20
2023-01-21T04:00:21.284Z,4.20
2023-01-21T04:01:21.232Z,4.10
2023-01-21T04:02:21.283Z,4.10
2023-01-21T04:03:21.246Z,4.00
2023-01-21T04:04:21.701Z,3.80
2023-01-21T04:05:21.272Z,3.60
2023-01-21T04:06:21.413Z,3.60
2023-01-21T04:07:21.511Z,3.60
2023-01-21T04:08:21.186Z,3.90
2023-01-21T04:09:21.118Z,3.50
2023-01-21T04:10:21.177Z,3.40
2023-01-21T04:11:21.033Z,3.50
2023-01-21T04:12:21.024Z,3.40
2023-01-21T04:13:21.115Z,3.40
2023-01-21T04:14:21.041Z,3.50
2023-01-21T04:15:21.273Z,3.70
2023-01-21T04:16:21.295Z,3.80
2023-01-21T04:17:20.980Z,3.60
2023-01-21T04:18:21.158Z,3.70
2023-01-21T04:19:20.873Z,3.40
2023-01-21T04:20:21.082Z,3.70
2023-01-21T04:21:21.102Z,3.60
2023-01-21T04:22:21.081Z,3.50
2023-01-21T04:23:21.118Z,3.50
2023-01-21T04:24:20.906Z,3.70
2023-01-21T04:25:20.937Z,3.80
2023-01-21T04:26:20.813Z,3.50
2023-01-21T04:27:20.821Z,3.60
2023-01-21T04:28:21.038Z,3.50
2023-01-21T04:29:21.202Z,3.30
2023-01-21T04:30:21.087Z,3.50
2023-01-21T04:31:20.880Z,3.20
2023-01-21T04:32:21.804Z,3.30
2023-01-21T04:33:20.775Z,3.30
2023-01-21T04:34:21.082Z,3.30
2023-01-21T04:35:21.027Z,3.00
2023-01-21T04:36:20.788Z,3.20
2023-01-21T04:37:20.698Z,3.50
2023-01-21T04:38:20.801Z,3.30
2023-01-21T04:39:20.794Z,3.30
2023-01-21T04:40:20.615Z,3.70
2023-01-21T04:41:20.726Z,3.30
2023-01-21T04:42:20.919Z,3.80
2023-01-21T04:43:20.630Z,3.60
2023-01-21T04:44:20.941Z,3.60
2023-01-21T04:45:21.153Z,3.90
2023-01-21T04:46:20.571Z,3.80
2023-01-21T04:47:20.680Z,3.70
2023-01-21T04:48:20.647Z,3.40
2023-01-21T04:49:20.571Z,3.90
2023-01-21T04:50:20.793Z,3.40
2023-01-21T04:51:20.523Z,3.80
2023-01-21T04:52:20.480Z,3.60
2023-01-21T04:53:20.495Z,3.70
2023-01-21T04:54:20.508Z,3.60
2023-01-21T04:55:20.399Z,3.40
2023-01-21T04:56:20.425Z,3.00
2023-01-21T04:57:20.416Z,3.20
2023-01-21T04:58:20.537Z,3.00
2023-01-21T04:59:20.446Z,2.60
2023-01-21T05:00:20.471Z,2.60
2023-01-21T05:01:20.497Z,2.30
2023-01-21T05:02:20.618Z,2.20
2023-01-21T05:03:20.275Z,2.60
2023-01-21T05:04:20.360Z,2.40
2023-01-21T05:05:20.287Z,2.40
2023-01-21T05:06:20.300Z,2.10
2023-01-21T05:07:21.793Z,2.00
2023-01-21T05:08:20.287Z,2.10
2023-01-21T05:09:20.213Z,2.30
2023-01-21T05:10:20.319Z,2.40
2023-01-21T05:11:20.248Z,2.40
2023-01-21T05:12:20.211Z,2.40
2023-01-21T05:13:20.347Z,2.20
2023-01-21T05:14:20.137Z,2.20
2023-01-21T05:15:20.256Z,2.60
2023-01-21T05:16:20.173Z,2.30
2023-01-21T05:17:20.260Z,2.00
2023-01-21T05:18:20.270Z,2.50
2023-01-21T05:19:20.191Z,2.40
2023-01-21T05:20:20.244Z,2.10
2023-01-21T05:21:20.103Z,2.50
2023-01-21T05:22:20.174Z,2.20
2023-01-21T05:23:20.809Z,2.20
2023-01-21T05:24:20.103Z,2.20
2023-01-21T05:25:20.044Z,2.30
2023-01-21T05:26:20.104Z,2.10
2023-01-21T05:27:19.946Z,2.40
2023-01-21T05:28:20.115Z,2.20
2023-01-21T05:29:20.055Z,2.20
2023-01-21T05:30:19.932Z,2.40
2023-01-21T05:31:20.431Z,2.20
2023-01-21T05:32:20.196Z,2.20
2023-01-21T05:33:19.953Z,2.10
2023-01-21T05:34:20.060Z,2.00
2023-01-21T05:35:19.879Z,2.30
2023-01-21T05:36:19.879Z,2.20
2023-01-21T05:37:19.910Z,2.40
2023-01-21T05:38:20.011Z,2.10
2023-01-21T05:39:19.908Z,2.30
2023-01-21T05:40:20.115Z,2.20
2023-01-21T05:41:19.813Z,2.50
2023-01-21T05:42:19.824Z,2.60
2023-01-21T05:43:19.943Z,2.20
2023-01-21T05:44:19.746Z,2.50
2023-01-21T05:45:19.970Z,2.60
2023-01-21T05:46:19.916Z,2.60
2023-01-21T05:47:19.760Z,2.70
2023-01-21T05:48:19.853Z,2.30
2023-01-21T05:49:19.689Z,2.80
2023-01-21T05:50:19.789Z,2.50
2023-01-21T05:51:19.972Z,2.60
2023-01-21T05:52:19.725Z,3.00
2023-01-21T05:53:20.002Z,2.60
2023-01-21T05:54:19.683Z,2.60
2023-01-21T05:55:19.706Z,2.90
2023-01-21T05:56:19.834Z,2.50
2023-01-21T05:57:19.628Z,2.20
2023-01-21T05:58:19.748Z,2.50
2023-01-21T05:59:19.666Z,2.50
2023-01-21T06:00:19.938Z,2.40
2023-01-21T06:01:19.642Z,2.50
2023-01-21T06:02:19.777Z,2.60
2023-01-21T06:03:20.344Z,2.40
2023-01-21T06:04:19.651Z,2.50
2023-01-21T06:05:19.674Z,2.30
2023-01-21T06:06:19.566Z,2.20
2023-01-21T06:07:19.677Z,2.30
2023-01-21T06:08:19.510Z,2.20
2023-01-21T06:09:19.612Z,2.10
2023-01-21T06:10:19.646Z,2.20
2023-01-21T06:11:19.414Z,2.20
2023-01-21T06:12:19.513Z,2.20
2023-01-21T06:13:19.435Z,2.30
2023-01-21T06:14:19.625Z,2.20
2023-01-21T06:15:19.556Z,2.30
2023-01-21T06:16:19.335Z,2.50
2023-01-21T06:17:19.345Z,2.40
2023-01-21T06:18:19.484Z,2.40
2023-01-21T06:19:19.351Z,2.20
2023-01-21T06:20:19.599Z,2.20
2023-01-21T06:21:19.388Z,2.30
2023-01-21T06:22:19.850Z,2.50
2023-01-21T06:23:19.616Z,2.30
2023-01-21T06:24:19.395Z,2.20
2023-01-21T06:25:19.329Z,2.60
2023-01-21T06:26:19.230Z,2.40
2023-01-21T06:27:19.621Z,2.30
2023-01-21T06:28:19.212Z,2.50
2023-01-21T06:29:19.539Z,2.30
2023-01-21T06:30:19.283Z,2.20
2023-01-21T06:31:19.367Z,2.20
2023-01-21T06:32:21.804Z,1.80
2023-01-21T06:33:22.661Z,1.90
2023-01-21T06:34:21.118Z,2.00
2023-01-21T06:35:19.387Z,2.10
2023-01-21T06:36:19.088Z,2.00
2023-01-21T06:37:19.312Z,2.60
2023-01-21T06:38:19.321Z,2.50
2023-01-21T06:39:19.114Z,2.30
2023-01-21T06:40:19.540Z,2.40
2023-01-21T06:41:19.343Z,2.40
2023-01-21T06:42:19.328Z,2.40
2023-01-21T06:43:19.117Z,2.50
2023-01-21T06:44:19.487Z,2.40
2023-01-21T06:45:19.747Z,2.60
2023-01-21T06:46:19.212Z,2.20
2023-01-21T06:47:18.971Z,2.20
2023-01-21T06:48:19.159Z,2.40
2023-01-21T06:49:19.058Z,2.10
2023-01-21T06:50:19.262Z,2.30
2023-01-21T06:51:19.115Z,2.40
2023-01-21T06:52:18.797Z,2.30
2023-01-21T06:53:18.917Z,2.20
2023-01-21T06:54:18.813Z,2.30
2023-01-21T06:55:19.019Z,2.50
2023-01-21T06:56:19.121Z,2.20
2023-01-21T06:57:19.131Z,2.50
2023-01-21T06:58:19.025Z,2.40
2023-01-21T06:59:18.934Z,2.20
2023-01-21T07:00:19.241Z,2.40
2023-01-21T07:01:18.906Z,2.20
2023-01-21T07:02:18.883Z,2.40
2023-01-21T07:03:18.876Z,2.30
2023-01-21T07:04:18.876Z,2.40
2023-01-21T07:05:19.092Z,2.70
2023-01-21T07:06:18.688Z,2.50
2023-01-21T07:07:18.712Z,2.40
2023-01-21T07:08:19.093Z,2.50
2023-01-21T07:09:18.630Z,2.80
2023-01-21T07:10:19.091Z,2.60
2023-01-21T07:11:19.041Z,2.30
2023-01-21T07:12:18.650Z,2.60
2023-01-21T07:13:18.621Z,2.40
2023-01-21T07:14:18.753Z,2.50
2023-01-21T07:15:18.901Z,2.60
2023-01-21T07:16:18.576Z,2.50
2023-01-21T07:17:18.642Z,2.60
2023-01-21T07:18:18.662Z,2.70
2023-01-21T07:19:18.587Z,2.60
2023-01-21T07:20:18.566Z,2.70
2023-01-21T07:21:18.490Z,2.60
2023-01-21T07:22:18.501Z,2.70
2023-01-21T07:23:18.488Z,2.70
2023-01-21T07:24:18.418Z,2.50
2023-01-21T07:25:18.813Z,2.80
2023-01-21T07:26:18.406Z,2.60
2023-01-21T07:27:18.399Z,2.80
2023-01-21T07:28:18.434Z,2.70
2023-01-21T07:29:18.447Z,2.90
2023-01-21T07:30:18.653Z,2.80
2023-01-21T07:31:18.533Z,3.00
2023-01-21T07:32:18.446Z,2.80
2023-01-21T07:33:18.363Z,2.60
2023-01-21T07:34:18.483Z,2.60
2023-01-21T07:35:18.717Z,3.00
2023-01-21T07:36:18.275Z,2.80
2023-01-21T07:37:18.389Z,2.80
2023-01-21T07:38:18.684Z,2.80
2023-01-21T07:39:18.296Z,2.90
2023-01-21T07:40:18.325Z,2.90
2023-01-21T07:41:18.215Z,2.80
2023-01-21T07:42:18.303Z,2.90
2023-01-21T07:43:18.231Z,3.00
2023-01-21T07:44:18.226Z,2.70
2023-01-21T07:45:18.472Z,2.90
2023-01-21T07:46:18.230Z,3.00
2023-01-21T07:47:18.159Z,2.90
2023-01-21T07:48:18.260Z,2.80
2023-01-21T07:49:18.158Z,2.90
2023-01-21T07:50:18.177Z,2.70
2023-01-21T07:51:18.177Z,2.80
2023-01-21T07:52:18.200Z,2.70
2023-01-21T07:53:18.516Z,2.60
2023-01-21T07:54:18.090Z,2.70
2023-01-21T07:55:18.279Z,2.90
2023-01-21T07:56:18.042Z,2.90
2023-01-21T07:57:18.110Z,2.90
2023-01-21T07:58:17.922Z,2.70
2023-01-21T07:59:18.663Z,2.60
2023-01-21T08:00:18.023Z,3.00
2023-01-21T08:01:18.100Z,2.90
2023-01-21T08:02:18.170Z,2.60
2023-01-21T08:03:17.959Z,2.90
2023-01-21T08:04:17.960Z,2.80
2023-01-21T08:05:18.331Z,2.70
2023-01-21T08:06:17.904Z,2.80
2023-01-21T08:07:17.881Z,2.60
2023-01-21T08:08:17.885Z,2.80
2023-01-21T08:09:17.910Z,2.70
2023-01-21T08:10:17.806Z,2.50
2023-01-21T08:11:17.806Z,2.40
2023-01-21T08:12:17.817Z,2.60
2023-01-21T08:13:17.922Z,2.50
2023-01-21T08:14:17.829Z,2.50
2023-01-21T08:15:18.165Z,2.90
2023-01-21T08:16:36.148Z,2.50
2023-01-21T08:17:17.859Z,2.70
2023-01-21T08:18:17.757Z,2.60
2023-01-21T08:19:17.860Z,2.50
2023-01-21T08:20:17.820Z,2.50
2023-01-21T08:21:17.700Z,2.80
2023-01-21T08:22:17.716Z,2.50
2023-01-21T08:23:17.706Z,2.70
2023-01-21T08:24:17.709Z,2.90
2023-01-21T08:25:17.864Z,3.00
2023-01-21T08:26:17.592Z,2.70
2023-01-21T08:27:17.518Z,2.90
2023-01-21T08:28:17.692Z,2.40
2023-01-21T08:29:17.544Z,2.60
2023-01-21T08:30:17.539Z,2.80
2023-01-21T08:31:17.672Z,2.80
2023-01-21T08:32:17.477Z,3.10
2023-01-21T08:33:17.661Z,2.80
2023-01-21T08:34:17.476Z,2.90
2023-01-21T08:35:17.666Z,3.00
2023-01-21T08:36:17.599Z,2.90
2023-01-21T08:37:17.454Z,3.10
2023-01-21T08:38:17.572Z,2.90
2023-01-21T08:39:17.515Z,2.80
2023-01-21T08:40:17.397Z,2.90
2023-01-21T08:41:17.489Z,3.00
2023-01-21T08:42:17.538Z,3.10
2023-01-21T08:43:17.398Z,2.90
2023-01-21T08:44:17.371Z,3.00
2023-01-21T08:45:17.843Z,2.80
2023-01-21T08:46:17.441Z,3.00
2023-01-21T08:47:17.355Z,3.20
2023-01-21T08:48:17.425Z,3.00
2023-01-21T08:49:17.390Z,3.10
2023-01-21T08:50:17.293Z,3.40
2023-01-21T08:51:17.318Z,3.00
2023-01-21T08:52:17.283Z,3.50
2023-01-21T08:53:17.212Z,3.20
2023-01-21T08:54:17.313Z,3.00
2023-01-21T08:55:17.572Z,3.20
2023-01-21T08:56:17.395Z,3.10
2023-01-21T08:57:17.227Z,3.30
2023-01-21T08:58:17.142Z,3.30
2023-01-21T08:59:17.228Z,3.30
2023-01-21T09:00:17.151Z,3.50
2023-01-21T09:01:17.519Z,3.10
2023-01-21T09:02:17.231Z,3.00
2023-01-21T09:03:17.101Z,2.90
2023-01-21T09:04:17.051Z,3.10
2023-01-21T09:05:17.381Z,3.30
2023-01-21T09:06:17.062Z,2.80
2023-01-21T09:07:17.176Z,3.30
2023-01-21T09:08:17.083Z,3.10
2023-01-21T09:09:17.008Z,3.20
2023-01-21T09:10:16.995Z,3.20
2023-01-21T09:11:17.016Z,2.80
2023-01-21T09:12:17.029Z,3.30
2023-01-21T09:13:17.016Z,3.30
2023-01-21T09:14:17.107Z,3.20
2023-01-21T09:15:17.247Z,3.50
2023-01-21T09:16:17.005Z,3.00
2023-01-21T09:17:16.845Z,3.20
2023-01-21T09:18:16.847Z,3.30
2023-01-21T09:19:16.994Z,3.30
2023-01-21T09:20:16.867Z,2.90
2023-01-21T09:21:16.874Z,3.00
2023-01-21T09:22:16.889Z,2.90
2023-01-21T09:23:17.271Z,3.00
2023-01-21T09:24:16.810Z,3.40
2023-01-21T09:25:17.090Z,3.10
2023-01-21T09:26:17.094Z,3.30
2023-01-21T09:27:16.949Z,3.20
2023-01-21T09:28:16.826Z,3.00
2023-01-21T09:29:16.761Z,3.20
2023-01-21T09:30:16.745Z,3.20
2023-01-21T09:31:16.820Z,2.70
2023-01-21T09:32:16.871Z,3.30
2023-01-21T09:33:16.680Z,3.00
2023-01-21T09:34:16.629Z,3.20
2023-01-21T09:35:16.981Z,3.40
2023-01-21T09:36:16.656Z,3.20
2023-01-21T09:37:16.662Z,3.40
2023-01-21T09:38:16.583Z,3.40
2023-01-21T09:39:16.603Z,3.20
2023-01-21T09:40:16.604Z,3.70
2023-01-21T09:41:16.510Z,3.40
2023-01-21T09:42:16.505Z,3.70
2023-01-21T09:43:16.607Z,3.90
2023-01-21T09:44:16.520Z,3.50
2023-01-21T09:45:16.861Z,3.50
2023-01-21T09:46:16.525Z,3.70
2023-01-21T09:47:16.535Z,3.60
2023-01-21T09:48:16.439Z,3.40
2023-01-21T09:49:16.579Z,3.80
2023-01-21T09:50:16.481Z,3.30
2023-01-21T09:51:16.541Z,3.60
2023-01-21T09:52:16.469Z,3.80
2023-01-21T09:53:16.464Z,3.90
2023-01-21T09:54:16.712Z,3.90
2023-01-21T09:55:16.715Z,4.10
2023-01-21T09:56:16.398Z,3.90
2023-01-21T09:57:16.431Z,4.10
2023-01-21T09:58:16.329Z,4.00
2023-01-21T09:59:16.318Z,3.90
2023-01-21T10:00:16.552Z,4.00
2023-01-21T10:01:16.476Z,4.10
2023-01-21T10:02:16.383Z,4.00
2023-01-21T10:03:16.271Z,4.00
2023-01-21T10:04:16.479Z,3.80
2023-01-21T10:05:16.565Z,4.00
2023-01-21T10:06:16.996Z,3.70
2023-01-21T10:07:16.295Z,3.80
2023-01-21T10:08:16.202Z,3.90
2023-01-21T10:09:16.273Z,4.10
2023-01-21T10:10:16.330Z,3.80
2023-01-21T10:11:16.225Z,3.60
2023-01-21T10:12:16.136Z,4.20
2023-01-21T10:13:16.129Z,4.00
2023-01-21T10:14:16.216Z,4.20
2023-01-21T10:15:16.780Z,4.40
2023-01-21T10:16:16.098Z,4.30
2023-01-21T10:17:16.156Z,4.60
2023-01-21T10:18:16.153Z,4.80
2023-01-21T10:19:16.142Z,4.60
2023-01-21T10:20:16.164Z,4.90
2023-01-21T10:21:16.056Z,4.30
2023-01-21T10:22:16.065Z,4.10
2023-01-21T10:23:15.991Z,4.20
2023-01-21T10:24:16.079Z,4.60
2023-01-21T10:25:16.468Z,4.60
2023-01-21T10:26:16.097Z,4.40
2023-01-21T10:27:15.890Z,4.60
2023-01-21T10:28:15.922Z,4.50
2023-01-21T10:29:15.926Z,4.90
2023-01-21T10:30:15.966Z,4.80
2023-01-21T10:31:16.202Z,5.00
2023-01-21T10:32:15.949Z,5.10
2023-01-21T10:33:15.850Z,5.40
2023-01-21T10:34:15.865Z,5.50
2023-01-21T10:35:16.232Z,5.70
2023-01-21T10:36:15.864Z,5.90
2023-01-21T10:37:15.861Z,5.70
2023-01-21T10:38:15.812Z,6.10
2023-01-21T10:39:15.887Z,6.10
2023-01-21T10:40:15.752Z,5.50
2023-01-21T10:41:15.822Z,5.90
2023-01-21T10:42:15.743Z,5.90
2023-01-21T10:43:15.774Z,5.80
2023-01-21T10:44:15.833Z,5.90
2023-01-21T10:45:16.161Z,6.20
2023-01-21T10:46:15.802Z,6.30
2023-01-21T10:47:15.864Z,6.00
2023-01-21T10:48:15.792Z,6.00
2023-01-21T10:49:15.663Z,6.00
2023-01-21T10:50:15.986Z,6.00
2023-01-21T10:51:15.745Z,5.90
2023-01-21T10:52:15.583Z,6.10
2023-01-21T10:53:15.591Z,6.20
2023-01-21T10:54:15.570Z,6.00
2023-01-21T10:55:15.811Z,6.00
2023-01-21T10:56:15.531Z,5.90
2023-01-21T10:57:15.607Z,6.20
2023-01-21T10:58:15.524Z,5.40
2023-01-21T10:59:15.423Z,5.20
2023-01-21T11:00:15.558Z,5.60
2023-01-21T11:01:15.518Z,5.50
2023-01-21T11:02:15.592Z,5.80
2023-01-21T11:03:15.509Z,5.50
2023-01-21T11:04:15.465Z,5.90
2023-01-21T11:05:15.726Z,5.80
2023-01-21T11:06:15.993Z,5.50
2023-01-21T11:07:15.454Z,5.70
2023-01-21T11:08:15.399Z,5.60
2023-01-21T11:09:15.320Z,5.80
2023-01-21T11:10:15.317Z,5.60
2023-01-21T11:11:15.316Z,5.70
2023-01-21T11:12:15.327Z,5.80
2023-01-21T11:13:15.525Z,5.80
2023-01-21T11:14:15.415Z,6.00
2023-01-21T11:15:15.413Z,6.10
2023-01-21T11:16:16.355Z,5.80
2023-01-21T11:17:15.227Z,6.40
2023-01-21T11:18:15.379Z,5.90
2023-01-21T11:19:15.465Z,6.30
2023-01-21T11:20:15.452Z,6.70
2023-01-21T11:21:15.161Z,6.10
2023-01-21T11:22:15.174Z,7.00
2023-01-21T11:23:15.163Z,5.90
2023-01-21T11:24:15.201Z,6.40
2023-01-21T11:25:15.621Z,5.80
2023-01-21T11:26:15.306Z,6.20
2023-01-21T11:27:15.246Z,6.20
2023-01-21T11:28:15.112Z,5.70
2023-01-21T11:29:15.110Z,5.80
2023-01-21T11:30:36.999Z,5.60
2023-01-21T11:31:16.167Z,5.70
2023-01-21T11:32:15.212Z,5.80
2023-01-21T11:33:15.062Z,5.40
2023-01-21T11:34:15.069Z,5.50
2023-01-21T11:35:14.996Z,5.60
2023-01-21T11:36:14.989Z,5.70
2023-01-21T11:37:14.967Z,5.40
2023-01-21T11:38:14.972Z,5.90
2023-01-21T11:39:14.977Z,5.50
2023-01-21T11:40:15.092Z,5.80
2023-01-21T11:41:14.908Z,5.70
2023-01-21T11:42:14.901Z,5.60
2023-01-21T11:43:14.924Z,5.90
2023-01-21T11:44:14.830Z,5.30
2023-01-21T11:45:15.142Z,6.30
2023-01-21T11:46:14.854Z,6.20
2023-01-21T11:47:14.849Z,6.60
2023-01-21T11:48:14.836Z,6.30
2023-01-21T11:49:14.869Z,6.40
2023-01-21T11:50:14.860Z,6.40
2023-01-21T11:51:15.007Z,5.70
2023-01-21T11:52:14.860Z,6.50
2023-01-21T11:53:14.761Z,6.20
2023-01-21T11:54:14.709Z,6.10
2023-01-21T11:55:14.695Z,6.10
2023-01-21T11:56:14.724Z,6.10
2023-01-21T11:57:14.716Z,6.00
2023-01-21T11:58:14.746Z,6.20
2023-01-21T11:59:14.647Z,6.00
2023-01-21T12:00:15.019Z,5.90
2023-01-21T12:01:14.617Z,5.60
2023-01-21T12:02:14.693Z,6.10
2023-01-21T12:03:14.630Z,5.30
2023-01-21T12:04:14.684Z,5.30
2023-01-21T12:05:14.640Z,5.60
2023-01-21T12:06:15.379Z,5.30
2023-01-21T12:07:14.553Z,5.60
2023-01-21T12:08:14.512Z,5.80
2023-01-21T12:09:14.569Z,6.20
2023-01-21T12:10:14.622Z,5.70
2023-01-21T12:11:14.595Z,5.70
2023-01-21T12:12:14.501Z,5.90
2023-01-21T12:13:14.435Z,5.80
2023-01-21T12:14:14.409Z,5.70
2023-01-21T12:15:14.435Z,5.90
2023-01-21T12:16:14.476Z,5.50
2023-01-21T12:17:14.437Z,5.70
2023-01-21T12:18:14.438Z,5.90
2023-01-21T12:19:14.435Z,5.80
2023-01-21T12:20:14.501Z,6.30
2023-01-21T12:21:15.791Z,6.30
2023-01-21T12:22:14.279Z,6.40
2023-01-21T12:23:14.313Z,6.20
2023-01-21T12:24:14.367Z,6.70
2023-01-21T12:25:14.423Z,6.90
2023-01-21T12:26:14.321Z,7.00
2023-01-21T12:27:14.438Z,6.90
2023-01-21T12:28:14.328Z,7.00
2023-01-21T12:29:14.216Z,7.30
2023-01-21T12:30:14.313Z,7.10
2023-01-21T12:31:14.452Z,7.40
2023-01-21T12:32:14.234Z,7.30
2023-01-21T12:33:14.253Z,7.20
2023-01-21T12:34:14.160Z,7.60
2023-01-21T12:35:14.273Z,6.50
2023-01-21T12:36:14.193Z,5.20
2023-01-21T12:37:14.273Z,5.30
2023-01-21T12:38:14.176Z,6.10
2023-01-21T12:39:14.161Z,5.20
2023-01-21T12:40:15.162Z,5.50
2023-01-21T12:41:14.102Z,5.10
2023-01-21T12:42:14.295Z,5.00
2023-01-21T12:43:14.112Z,6.10
2023-01-21T12:44:14.148Z,5.20
2023-01-21T12:45:14.987Z,5.90
2023-01-21T12:46:14.097Z,5.10
2023-01-21T12:47:14.037Z,5.10
2023-01-21T12:48:14.956Z,4.80
2023-01-21T12:49:13.959Z,4.90
2023-01-21T12:50:13.982Z,5.10
2023-01-21T12:51:14.104Z,5.30
2023-01-21T12:52:15.141Z,5.40
2023-01-21T12:53:13.955Z,5.20
2023-01-21T12:54:13.895Z,4.90
2023-01-21T12:55:13.909Z,5.30
2023-01-21T12:56:13.883Z,5.40
2023-01-21T12:57:13.910Z,5.20
2023-01-21T12:58:13.820Z,5.30
2023-01-21T12:59:13.978Z,5.10
2023-01-21T13:00:13.827Z,4.50
2023-01-21T13:01:13.827Z,4.90
2023-01-21T13:02:13.856Z,4.60
2023-01-21T13:03:13.827Z,4.10
2023-01-21T13:04:13.758Z,4.60
2023-01-21T13:05:13.976Z,4.50
2023-01-21T13:06:13.772Z,5.10
2023-01-21T13:07:13.779Z,4.80
2023-01-21T13:08:13.683Z,4.90
2023-01-21T13:09:13.707Z,5.40
2023-01-21T13:10:13.792Z,5.40
2023-01-21T13:11:13.704Z,5.20
2023-01-21T13:12:13.684Z,5.50
2023-01-21T13:13:13.613Z,5.50
2023-01-21T13:14:14.321Z,5.40
2023-01-21T13:15:13.626Z,6.30
2023-01-21T13:16:13.592Z,5.90
2023-01-21T13:17:13.748Z,5.50
2023-01-21T13:18:13.542Z,5.20